Time;durP1;ratioP1;P1;durP2;ratioP2;P2;SDS_P1;SDS_P2;PMS_P1;PMS_P2;Temp;Humidity;BMP_temperature;BMP_pressure;BME280_temperature;BME280_humidity;BME280_pressure;Samples;Min_cycle;Max_cycle;Signal;HPM_P1;HPM_P2
2021/01/01 00:01:09;;;;;;;7.45;5.65;;;10.60;64.80;;;;;;5102076;28;20031;-64
2021/01/01 00:03:35;;;;;;;12.27;6.97;;;10.60;64.60;;;;;;5102019;28;20027;-67
2021/01/01 00:06:00;;;;;;;10.82;7.55;;;10.60;64.60;;;;;;5101971;28;20079;-67
2021/01/01 00:08:28;;;;;;;10.10;6.38;;;10.60;64.50;;;;;;5101779;28;20335;-68
2021/01/01 00:10:54;;;;;;;8.50;5.65;;;10.60;64.40;;;;;;5101923;28;20197;-65
2021/01/01 00:13:19;;;;;;;8.15;6.07;;;10.60;64.50;;;;;;5101898;28;20023;-66
2021/01/01 00:15:45;;;;;;;14.18;6.78;;;10.60;64.50;;;;;;5105562;28;20023;-66
2021/01/01 00:18:11;;;;;;;8.80;6.65;;;10.60;64.60;;;;;;5105883;28;20015;-68
2021/01/01 00:20:41;;;;;;;11.88;6.57;;;10.60;64.60;;;;;;5105792;28;20020;-66
2021/01/01 00:23:08;;;;;;;10.32;6.28;;;10.60;64.60;;;;;;5105819;28;20035;-67
2021/01/01 00:25:34;;;;;;;9.82;6.43;;;10.60;64.40;;;;;;5121546;28;20099;-67
2021/01/01 00:28:00;;;;;;;9.27;6.50;;;10.60;64.40;;;;;;5105567;28;20312;-63
2021/01/01 00:30:25;;;;;;;9.55;6.20;;;10.60;64.50;;;;;;5105689;28;20038;-67
2021/01/01 00:32:51;;;;;;;8.32;6.07;;;10.60;64.40;;;;;;5105570;28;20035;-67
2021/01/01 00:35:17;;;;;;;8.48;6.22;;;10.60;64.60;;;;;;5105532;28;20043;-66
2021/01/01 00:37:43;;;;;;;8.68;5.78;;;10.60;64.60;;;;;;5105436;28;20024;-62
2021/01/01 00:40:09;;;;;;;11.77;6.65;;;10.60;64.40;;;;;;5105479;28;20038;-68
2021/01/01 00:42:36;;;;;;;9.20;6.22;;;10.60;64.20;;;;;;5105436;28;20389;-67
2021/01/01 00:45:06;;;;;;;8.00;5.68;;;10.60;64.20;;;;;;5105433;28;20016;-67
2021/01/01 00:47:32;;;;;;;9.02;6.05;;;10.60;64.20;;;;;;5105321;28;20020;-68
2021/01/01 00:49:58;;;;;;;8.45;6.32;;;10.60;64.10;;;;;;5121041;28;20060;-65
2021/01/01 00:52:24;;;;;;;9.60;6.55;;;10.60;64.10;;;;;;5105183;28;20028;-67
2021/01/01 00:54:49;;;;;;;7.63;5.95;;;10.60;64.40;;;;;;5105180;28;20209;-66
2021/01/01 00:57:15;;;;;;;10.77;6.90;;;10.60;64.40;;;;;;5105118;28;20020;-66
2021/01/01 00:59:41;;;;;;;8.93;6.40;;;10.60;64.40;;;;;;5105108;28;20093;-65
2021/01/01 01:02:06;;;;;;;7.95;6.07;;;10.60;64.50;;;;;;5105092;28;20212;-67
2021/01/01 01:04:32;;;;;;;8.32;6.40;;;10.60;64.60;;;;;;5104972;28;20031;-66
2021/01/01 01:06:58;;;;;;;9.10;6.60;;;10.60;64.60;;;;;;5104965;28;20035;-65
2021/01/01 01:09:24;;;;;;;8.63;5.78;;;10.60;64.40;;;;;;5104699;28;20209;-64
2021/01/01 01:11:49;;;;;;;10.98;7.22;;;10.60;64.50;;;;;;5104894;28;20307;-66
2021/01/01 01:14:15;;;;;;;8.75;5.90;;;10.60;64.20;;;;;;5104804;28;20016;-65
2021/01/01 01:16:41;;;;;;;8.05;5.75;;;10.60;64.10;;;;;;5104760;28;20076;-67
2021/01/01 01:19:07;;;;;;;7.57;5.45;;;10.60;64.10;;;;;;5104740;28;20016;-66
2021/01/01 01:21:32;;;;;;;8.77;6.00;;;10.60;64.10;;;;;;5104674;28;20031;-65
2021/01/01 01:23:58;;;;;;;9.25;6.70;;;10.60;64.30;;;;;;5104661;28;20107;-66
2021/01/01 01:26:24;;;;;;;8.75;5.97;;;10.60;64.80;;;;;;5103499;28;20032;-65
2021/01/01 01:28:50;;;;;;;10.57;6.60;;;10.60;64.10;;;;;;5104447;28;20027;-65
2021/01/01 01:31:16;;;;;;;9.05;6.30;;;10.60;64.20;;;;;;5104460;28;20020;-67
2021/01/01 01:33:42;;;;;;;9.05;6.10;;;10.60;64.30;;;;;;5104485;28;20012;-67
2021/01/01 01:36:08;;;;;;;8.65;6.20;;;10.60;64.30;;;;;;5104402;28;20054;-67
2021/01/01 01:38:34;;;;;;;10.38;6.25;;;10.60;64.30;;;;;;5104395;28;20081;-65
2021/01/01 01:41:00;;;;;;;8.85;6.13;;;10.50;64.50;;;;;;5104322;28;20040;-66
2021/01/01 01:43:26;;;;;;;9.77;6.35;;;10.50;64.70;;;;;;5104276;28;20057;-67
2021/01/01 01:45:54;;;;;;;8.02;6.13;;;10.50;64.30;;;;;;5104150;28;20012;-67
2021/01/01 01:48:26;;;;;;;9.20;6.30;;;10.60;64.30;;;;;;5104116;28;20016;-66
2021/01/01 01:50:52;;;;;;;10.23;6.65;;;10.60;63.90;;;;;;5104093;28;20074;-67
2021/01/01 01:53:18;;;;;;;7.63;6.28;;;10.60;64.00;;;;;;5104063;28;20020;-65
2021/01/01 01:55:44;;;;;;;7.70;6.22;;;10.60;64.10;;;;;;5104019;28;20087;-66
2021/01/01 01:58:11;;;;;;;10.32;5.75;;;10.60;64.30;;;;;;5103933;28;20026;-67
2021/01/01 02:03:02;;;;;;;7.22;5.90;;;10.60;64.30;;;;;;5104158;28;20055;-67
2021/01/01 02:05:28;;;;;;;12.52;7.28;;;10.60;64.80;;;;;;5103833;28;20096;-66
2021/01/01 02:07:55;;;;;;;9.10;6.70;;;10.60;64.30;;;;;;5103756;28;20073;-68
2021/01/01 02:10:20;;;;;;;9.63;6.20;;;10.50;64.60;;;;;;5103507;28;20044;-67
2021/01/01 02:12:48;;;;;;;8.20;5.53;;;10.50;64.50;;;;;;5103689;28;20070;-66
2021/01/01 02:15:14;;;;;;;9.73;6.72;;;10.50;64.40;;;;;;5103634;28;20012;-65
2021/01/01 02:17:39;;;;;;;7.88;5.72;;;10.50;64.40;;;;;;5103529;28;20024;-66
2021/01/01 02:20:10;;;;;;;10.10;6.05;;;10.50;64.30;;;;;;5103494;28;20020;-65
2021/01/01 02:22:40;;;;;;;8.60;6.20;;;10.50;64.30;;;;;;5103472;28;20024;-66
2021/01/01 02:25:08;;;;;;;9.45;6.03;;;10.50;64.10;;;;;;5103438;28;20118;-65
2021/01/01 02:27:33;;;;;;;8.75;5.43;;;10.50;64.00;;;;;;5103337;28;20016;-66
2021/01/01 02:29:59;;;;;;;8.82;5.63;;;10.50;64.00;;;;;;5103265;28;20032;-66
2021/01/01 02:32:25;;;;;;;8.65;6.22;;;10.50;64.00;;;;;;5103287;28;20413;-65
2021/01/01 02:34:50;;;;;;;8.05;5.72;;;10.50;63.90;;;;;;5103199;28;20039;-67
2021/01/01 02:37:16;;;;;;;8.32;5.57;;;10.50;64.20;;;;;;5103028;28;20023;-68
2021/01/01 02:39:42;;;;;;;8.02;5.85;;;10.50;64.20;;;;;;5103141;28;20061;-67
2021/01/01 02:42:09;;;;;;;7.13;5.40;;;10.50;64.30;;;;;;5103156;28;20039;-66
2021/01/01 02:44:35;;;;;;;7.68;5.55;;;10.50;64.40;;;;;;5103087;28;20035;-66
2021/01/01 02:47:04;;;;;;;7.53;5.13;;;10.50;64.50;;;;;;5103061;28;20020;-67
2021/01/01 02:49:33;;;;;;;9.20;6.05;;;10.50;64.50;;;;;;5102943;28;20207;-67
2021/01/01 02:51:59;;;;;;;7.38;5.15;;;10.50;65.00;;;;;;5118842;28;20107;-66
2021/01/01 02:54:26;;;;;;;9.30;5.78;;;10.50;64.20;;;;;;5102927;28;20016;-66
2021/01/01 02:56:52;;;;;;;8.05;5.38;;;10.50;63.90;;;;;;5102851;28;20239;-68
2021/01/01 02:59:18;;;;;;;8.32;5.95;;;10.50;64.00;;;;;;5102867;28;20091;-66
2021/01/01 03:01:44;;;;;;;8.75;6.03;;;10.50;63.80;;;;;;5102784;28;20042;-66
2021/01/01 03:04:10;;;;;;;7.07;5.20;;;10.50;63.90;;;;;;5102789;28;20020;-68
2021/01/01 03:06:36;;;;;;;8.32;5.97;;;10.50;64.00;;;;;;5102870;28;20327;-67
2021/01/01 03:09:05;;;;;;;7.70;5.60;;;10.50;64.20;;;;;;5102438;28;20111;-65
2021/01/01 03:11:32;;;;;;;7.88;5.32;;;10.50;64.10;;;;;;5102608;28;20012;-66
2021/01/01 03:13:58;;;;;;;7.65;5.13;;;10.50;64.60;;;;;;5102584;28;20020;-64
2021/01/01 03:16:24;;;;;;;6.88;5.10;;;10.50;63.90;;;;;;5102549;28;20317;-66
2021/01/01 03:18:49;;;;;;;7.38;5.28;;;10.50;64.10;;;;;;5102450;28;20019;-65
2021/01/01 03:21:18;;;;;;;8.10;5.47;;;10.40;64.10;;;;;;5102533;28;20024;-66
2021/01/01 03:23:43;;;;;;;7.85;5.22;;;10.50;64.20;;;;;;5102482;28;20019;-66
2021/01/01 03:26:09;;;;;;;6.75;4.78;;;10.40;64.00;;;;;;5102465;28;20047;-64
2021/01/01 03:28:35;;;;;;;7.20;5.18;;;10.50;64.00;;;;;;5102309;28;20250;-65
2021/01/01 03:31:01;;;;;;;9.50;5.65;;;10.50;63.80;;;;;;5102346;28;20020;-66
2021/01/01 03:33:27;;;;;;;6.68;5.43;;;10.50;63.90;;;;;;5102283;28;20035;-66
2021/01/01 03:35:53;;;;;;;6.40;4.90;;;10.50;63.60;;;;;;5102314;28;20316;-64
2021/01/01 03:38:19;;;;;;;6.07;4.82;;;10.50;63.80;;;;;;5102271;28;20243;-64
2021/01/01 03:40:46;;;;;;;6.10;4.68;;;10.50;63.90;;;;;;5102290;28;20012;-66
2021/01/01 03:43:12;;;;;;;6.07;4.88;;;10.50;64.00;;;;;;5102245;28;20016;-68
2021/01/01 03:45:38;;;;;;;5.35;4.60;;;10.50;64.10;;;;;;5102201;28;20044;-66
2021/01/01 03:48:04;;;;;;;5.68;4.57;;;10.40;64.00;;;;;;5102158;28;20031;-66
2021/01/01 03:50:30;;;;;;;7.50;4.85;;;10.40;64.40;;;;;;5105614;28;20020;-67
2021/01/01 03:52:55;;;;;;;7.47;4.88;;;10.50;64.00;;;;;;5106338;28;20023;-65
2021/01/01 03:55:21;;;;;;;7.25;4.88;;;10.40;64.10;;;;;;5106381;28;20208;-66
2021/01/01 03:57:47;;;;;;;7.22;5.18;;;10.40;64.10;;;;;;5106281;28;20016;-65
2021/01/01 04:00:13;;;;;;;7.47;5.47;;;10.40;64.00;;;;;;5106486;28;20028;-63
2021/01/01 04:02:39;;;;;;;5.82;4.72;;;10.40;63.90;;;;;;5106154;28;20353;-64
2021/01/01 04:05:06;;;;;;;7.35;5.05;;;10.50;63.80;;;;;;5106179;28;20024;-66
2021/01/01 04:07:31;;;;;;;6.10;4.78;;;10.50;63.80;;;;;;5106317;28;20200;-67
2021/01/01 04:09:57;;;;;;;8.45;5.20;;;10.50;64.00;;;;;;5105856;28;20040;-65
2021/01/01 04:12:23;;;;;;;7.28;5.00;;;10.50;63.80;;;;;;5106048;28;20069;-62
2021/01/01 04:14:49;;;;;;;7.65;4.70;;;10.50;63.70;;;;;;5105998;28;20024;-67
2021/01/01 04:17:15;;;;;;;7.25;4.97;;;10.50;64.00;;;;;;5105910;28;20019;-65
2021/01/01 04:19:41;;;;;;;7.93;5.57;;;10.50;63.70;;;;;;5105824;28;20031;-64
2021/01/01 04:22:06;;;;;;;6.43;4.93;;;10.40;63.80;;;;;;5105832;28;20016;-66
2021/01/01 04:24:32;;;;;;;6.38;5.15;;;10.40;64.00;;;;;;5105813;28;20032;-67
2021/01/01 04:26:58;;;;;;;8.90;5.38;;;10.40;64.00;;;;;;5105718;28;20024;-66
2021/01/01 04:29:23;;;;;;;7.55;5.32;;;10.40;64.20;;;;;;5105650;28;20051;-66
2021/01/01 04:31:49;;;;;;;10.23;5.68;;;10.40;64.20;;;;;;5105648;28;20038;-63
2021/01/01 04:34:15;;;;;;;7.43;5.47;;;10.40;63.80;;;;;;5105658;28;20027;-65
2021/01/01 04:36:40;;;;;;;8.70;5.80;;;10.40;63.40;;;;;;5105585;28;20303;-67
2021/01/01 04:39:07;;;;;;;7.72;5.53;;;10.40;63.50;;;;;;5105480;28;20028;-67
2021/01/01 04:41:35;;;;;;;8.02;5.18;;;10.40;63.40;;;;;;5105556;28;20031;-65
2021/01/01 04:44:01;;;;;;;10.40;5.95;;;10.40;63.50;;;;;;5105446;28;20315;-67
2021/01/01 04:46:27;;;;;;;8.35;5.35;;;10.40;63.50;;;;;;5105405;28;20016;-66
2021/01/01 04:48:54;;;;;;;7.65;5.18;;;10.40;63.70;;;;;;5105256;28;20228;-63
2021/01/01 04:51:20;;;;;;;7.43;5.43;;;10.40;64.10;;;;;;5105291;28;20020;-65
2021/01/01 04:53:47;;;;;;;6.82;4.95;;;10.40;64.00;;;;;;5105250;28;20020;-66
2021/01/01 04:56:13;;;;;;;7.93;5.75;;;10.40;64.00;;;;;;5105185;28;20316;-65
2021/01/01 04:58:39;;;;;;;8.75;4.68;;;10.40;64.00;;;;;;5105129;28;20020;-66
2021/01/01 05:01:05;;;;;;;7.65;5.45;;;10.40;63.90;;;;;;5105021;28;20307;-65
2021/01/01 05:03:31;;;;;;;9.38;5.65;;;10.40;63.90;;;;;;5105039;28;20020;-66
2021/01/01 05:05:57;;;;;;;7.35;5.30;;;10.40;64.00;;;;;;5105069;28;20024;-66
2021/01/01 05:08:23;;;;;;;8.30;5.13;;;10.40;63.80;;;;;;5104759;28;20096;-67
2021/01/01 05:10:49;;;;;;;7.70;5.15;;;10.40;63.90;;;;;;5104902;28;20024;-66
2021/01/01 05:13:20;;;;;;;7.95;5.25;;;10.40;63.70;;;;;;5104851;28;20036;-67
2021/01/01 05:15:48;;;;;;;9.77;5.18;;;10.40;63.60;;;;;;5104840;28;20185;-66
2021/01/01 05:18:24;;;;;;;6.70;4.38;;;10.40;64.40;;;;;;5104802;28;20035;-66
2021/01/01 05:20:55;;;;;;;6.18;4.70;;;10.40;63.50;;;;;;5104746;28;20016;-66
2021/01/01 05:23:25;;;;;;;7.45;5.20;;;10.40;63.70;;;;;;5104722;28;20023;-67
2021/01/01 05:26:10;;;;;;;6.68;4.28;;;10.40;63.60;;;;;;5120444;28;20012;-67
2021/01/01 05:28:48;;;;;;;7.55;5.20;;;10.40;63.90;;;;;;5104472;28;20057;-68
2021/01/01 05:31:16;;;;;;;8.23;5.22;;;10.40;63.90;;;;;;5104424;28;20035;-66
2021/01/01 05:34:01;;;;;;;7.18;5.50;;;10.40;64.10;;;;;;5104432;28;20031;-68
2021/01/01 05:36:36;;;;;;;8.88;5.47;;;10.40;64.20;;;;;;5104443;28;20403;-67
2021/01/01 05:39:06;;;;;;;8.02;4.60;;;10.40;64.20;;;;;;5104397;28;20296;-67
2021/01/01 05:41:36;;;;;;;7.53;4.80;;;10.40;63.80;;;;;;5104296;28;20024;-68
2021/01/01 05:44:06;;;;;;;7.55;4.70;;;10.40;63.80;;;;;;5104186;28;20016;-66
2021/01/01 05:46:31;;;;;;;7.05;4.93;;;10.40;63.60;;;;;;5104186;28;20022;-65
2021/01/01 05:49:01;;;;;;;5.93;4.72;;;10.40;63.80;;;;;;5104067;28;20028;-66
2021/01/01 05:51:27;;;;;;;7.45;5.40;;;10.40;63.90;;;;;;5104132;28;20080;-65
2021/01/01 05:54:12;;;;;;;8.90;5.22;;;10.40;63.70;;;;;;5104075;28;20020;-68
2021/01/01 05:56:39;;;;;;;8.75;5.00;;;10.40;63.70;;;;;;5104026;28;20015;-65
2021/01/01 05:59:10;;;;;;;6.47;4.70;;;10.40;64.00;;;;;;5103960;28;20012;-66
2021/01/01 06:01:39;;;;;;;7.55;4.88;;;10.40;63.80;;;;;;5103931;28;20023;-66
2021/01/01 06:04:05;;;;;;;7.60;5.32;;;10.30;63.90;;;;;;5103854;28;20243;-65
2021/01/01 06:06:34;;;;;;;7.88;4.68;;;10.30;63.90;;;;;;5103793;28;20024;-65
2021/01/01 06:09:04;;;;;;;;;;;10.30;63.80;;;;;;5103958;28;20050;-67
2021/01/01 06:11:51;;;;;;;9.05;5.78;;;10.30;63.90;;;;;;5103219;28;19935;-67
2021/01/01 06:14:37;;;;;;;6.00;4.57;;;10.30;63.80;;;;;;5103703;28;20027;-64
2021/01/01 06:17:08;;;;;;;9.80;5.45;;;10.40;63.60;;;;;;5103663;28;20099;-65
2021/01/01 06:19:43;;;;;;;8.15;5.40;;;10.40;63.50;;;;;;5103589;28;20050;-65
2021/01/01 06:22:22;;;;;;;7.78;4.80;;;10.40;63.50;;;;;;5103505;28;20031;-63
2021/01/01 06:24:59;;;;;;;8.35;5.80;;;10.40;63.60;;;;;;5103475;28;20024;-66
2021/01/01 06:27:31;;;;;;;8.70;5.30;;;10.30;63.70;;;;;;5103414;28;20036;-66
2021/01/01 06:30:11;;;;;;;7.65;5.07;;;10.30;63.70;;;;;;5103315;28;20079;-66
2021/01/01 06:32:38;;;;;;;7.78;4.38;;;10.30;63.90;;;;;;5103346;28;20018;-65
2021/01/01 06:35:17;;;;;;;7.22;5.07;;;10.30;63.40;;;;;;5103255;28;20080;-65
2021/01/01 06:37:46;;;;;;;7.28;5.00;;;10.30;63.80;;;;;;5103512;28;20030;-65
2021/01/01 06:40:20;;;;;;;7.18;5.38;;;10.30;63.90;;;;;;5103179;28;20020;-67
2021/01/01 06:42:52;;;;;;;6.63;4.30;;;10.30;63.80;;;;;;5103123;28;20023;-68
2021/01/01 06:45:36;;;;;;;6.32;4.28;;;10.40;63.60;;;;;;5103051;28;20028;-65
2021/01/01 06:48:06;;;;;;;7.88;4.85;;;10.40;63.80;;;;;;5103037;28;20081;-67
2021/01/01 06:50:42;;;;;;;6.80;5.35;;;10.40;63.60;;;;;;5102898;28;20016;-68
2021/01/01 06:53:13;;;;;;;6.30;4.70;;;10.40;63.50;;;;;;5102959;28;20024;-65
2021/01/01 06:55:43;;;;;;;7.30;4.78;;;10.40;63.50;;;;;;5102902;28;20034;-65
2021/01/01 06:58:10;;;;;;;8.40;5.43;;;10.40;63.50;;;;;;5102839;28;20028;-66
2021/01/01 07:00:47;;;;;;;6.50;4.50;;;10.40;63.60;;;;;;5102821;28;20106;-66
2021/01/01 07:03:28;;;;;;;7.78;5.20;;;10.40;63.50;;;;;;5102713;28;20273;-64
2021/01/01 07:05:56;;;;;;;7.13;4.97;;;10.40;63.70;;;;;;5102725;28;20028;-67
2021/01/01 07:08:42;;;;;;;6.68;4.60;;;10.40;63.70;;;;;;5102448;28;20047;-67
2021/01/01 07:11:08;;;;;;;8.18;5.15;;;10.30;63.80;;;;;;5102631;28;20328;-66
2021/01/01 07:13:46;;;;;;;7.93;5.45;;;10.30;63.90;;;;;;5102540;28;20058;-67
2021/01/01 07:16:14;;;;;;;9.23;5.57;;;10.30;64.00;;;;;;5102560;28;20016;-67
2021/01/01 07:18:40;;;;;;;7.38;5.07;;;10.30;63.70;;;;;;5102504;28;20028;-67
2021/01/01 07:21:08;;;;;;;7.75;5.25;;;10.40;63.50;;;;;;5102467;28;20061;-67
2021/01/01 07:23:34;;;;;;;7.82;5.63;;;10.40;63.20;;;;;;5101606;28;20021;-65
2021/01/01 07:26:02;;;;;;;5.85;4.15;;;10.40;63.50;;;;;;5102371;28;20057;-68
2021/01/01 07:28:29;;;;;;;6.03;4.68;;;10.40;63.30;;;;;;5102321;28;20050;-68
2021/01/01 07:30:55;;;;;;;7.55;5.72;;;10.30;63.70;;;;;;5102378;28;20410;-67
2021/01/01 07:33:23;;;;;;;8.23;5.13;;;10.40;63.50;;;;;;5102275;28;20020;-66
2021/01/01 07:35:50;;;;;;;7.80;4.47;;;10.30;63.50;;;;;;5102331;28;20031;-65
2021/01/01 07:38:18;;;;;;;8.80;5.47;;;10.30;63.50;;;;;;5102307;28;20019;-67
2021/01/01 07:40:45;;;;;;;6.68;4.90;;;10.40;63.40;;;;;;5102227;28;20034;-66
2021/01/01 07:43:10;;;;;;;8.93;5.78;;;10.40;63.40;;;;;;5102242;28;20020;-66
2021/01/01 07:45:36;;;;;;;8.45;5.75;;;10.30;63.60;;;;;;5102159;28;20320;-67
2021/01/01 07:48:02;;;;;;;9.68;5.80;;;10.30;63.50;;;;;;5102186;28;20027;-67
2021/01/01 07:50:30;;;;;;;7.22;4.78;;;10.40;63.50;;;;;;5102106;28;20220;-66
2021/01/01 07:53:10;;;;;;;8.80;5.20;;;10.40;63.30;;;;;;5102125;28;20016;-67
2021/01/01 07:55:38;;;;;;;9.23;5.38;;;10.40;64.00;;;;;;5102063;28;20023;-67
2021/01/01 07:58:06;;;;;;;7.00;4.95;;;10.40;63.40;;;;;;5101988;28;20070;-65
2021/01/01 08:00:35;;;;;;;7.10;5.30;;;10.40;63.00;;;;;;5102068;28;20027;-67
2021/01/01 08:03:01;;;;;;;7.70;5.53;;;10.40;63.30;;;;;;5117800;28;20145;-68
2021/01/01 08:05:28;;;;;;;6.20;4.90;;;10.40;63.20;;;;;;5101996;28;20023;-66
2021/01/01 08:07:54;;;;;;;6.93;5.07;;;10.40;63.30;;;;;;5101935;28;20058;-66
2021/01/01 08:10:33;;;;;;;8.23;4.53;;;10.40;63.10;;;;;;5101638;28;20254;-66
2021/01/01 08:12:58;;;;;;;8.98;5.10;;;10.50;63.10;;;;;;5101978;28;20373;-67
2021/01/01 08:15:27;;;;;;;8.10;4.85;;;10.50;63.00;;;;;;5101909;28;20087;-66
2021/01/01 08:17:53;;;;;;;8.00;5.82;;;10.60;62.80;;;;;;5101865;28;20092;-64
2021/01/01 08:20:19;;;;;;;8.77;5.55;;;10.60;62.90;;;;;;5101843;28;20032;-65
2021/01/01 08:22:51;;;;;;;7.47;5.15;;;10.60;62.60;;;;;;5101827;28;20346;-66
2021/01/01 08:25:17;;;;;;;5.68;4.10;;;10.60;62.60;;;;;;5101883;28;20016;-65
2021/01/01 08:27:46;;;;;;;8.23;5.05;;;10.70;62.60;;;;;;5101785;28;20331;-66
2021/01/01 08:30:12;;;;;;;6.43;5.10;;;10.70;62.50;;;;;;5101695;28;20016;-67
2021/01/01 08:32:39;;;;;;;6.70;5.25;;;10.70;62.30;;;;;;5102310;28;20028;-66
2021/01/01 08:35:09;;;;;;;7.50;5.22;;;10.80;62.40;;;;;;5102571;28;20031;-66
2021/01/01 08:37:35;;;;;;;5.72;4.60;;;10.80;62.10;;;;;;5105166;28;20024;-66
2021/01/01 08:40:05;;;;;;;7.85;5.38;;;10.80;62.10;;;;;;5105471;28;20316;-68
2021/01/01 08:42:34;;;;;;;7.05;4.80;;;10.80;62.30;;;;;;5105430;28;20079;-67
2021/01/01 08:45:10;;;;;;;7.20;4.72;;;10.70;62.40;;;;;;5105423;28;20023;-66
2021/01/01 08:47:48;;;;;;;6.82;4.75;;;10.80;62.30;;;;;;5105367;28;20027;-66
2021/01/01 08:50:27;;;;;;;7.77;5.03;;;10.80;62.50;;;;;;5105288;28;20022;-65
2021/01/01 08:53:02;;;;;;;5.55;4.25;;;10.80;62.60;;;;;;5121081;28;20098;-68
2021/01/01 08:55:29;;;;;;;7.53;4.68;;;10.90;62.60;;;;;;5105236;28;20073;-67
2021/01/01 08:58:13;;;;;;;7.45;4.38;;;10.90;62.30;;;;;;5105125;28;20031;-68
2021/01/01 09:00:44;;;;;;;6.35;4.63;;;11.00;62.30;;;;;;5120931;28;20027;-67
2021/01/01 09:03:11;;;;;;;6.20;4.70;;;10.90;62.30;;;;;;5105059;28;20024;-66
2021/01/01 09:05:37;;;;;;;6.78;4.00;;;10.90;62.40;;;;;;5104986;28;20023;-67
2021/01/01 09:08:14;;;;;;;5.38;4.43;;;10.90;62.70;;;;;;5104962;28;20073;-65
2021/01/01 09:10:42;;;;;;;6.88;4.43;;;11.00;62.40;;;;;;5104747;28;20076;-65
2021/01/01 09:13:15;;;;;;;6.95;4.43;;;10.90;62.40;;;;;;5104878;28;20557;-67
2021/01/01 09:15:42;;;;;;;7.55;4.72;;;10.90;62.50;;;;;;5104791;28;20204;-68
2021/01/01 09:18:08;;;;;;;5.22;4.13;;;11.00;62.70;;;;;;5104765;28;20423;-66
2021/01/01 09:20:40;;;;;;;6.88;5.25;;;11.00;62.80;;;;;;5104681;28;20319;-65
2021/01/01 09:23:07;;;;;;;6.70;4.22;;;11.00;62.60;;;;;;5104705;28;20027;-67
2021/01/01 09:25:34;;;;;;;5.93;4.20;;;11.00;62.60;;;;;;5104626;28;20271;-67
2021/01/01 09:28:00;;;;;;;6.43;4.50;;;11.00;62.80;;;;;;5104567;28;20087;-65
2021/01/01 09:30:28;;;;;;;6.05;4.40;;;11.00;62.70;;;;;;5104392;28;20036;-66
2021/01/01 09:32:56;;;;;;;4.75;3.80;;;11.00;62.80;;;;;;5104525;28;20028;-66
2021/01/01 09:35:22;;;;;;;5.03;3.85;;;11.00;62.80;;;;;;5104389;28;20020;-66
2021/01/01 09:37:50;;;;;;;6.40;4.32;;;11.00;62.90;;;;;;5104393;28;20220;-66
2021/01/01 09:40:17;;;;;;;5.10;4.18;;;11.00;62.80;;;;;;5104373;28;20024;-68
2021/01/01 09:42:43;;;;;;;5.75;4.45;;;11.10;62.60;;;;;;5104247;28;20067;-65
2021/01/01 09:45:09;;;;;;;5.60;4.05;;;11.10;62.40;;;;;;5104245;28;20312;-68
2021/01/01 09:47:35;;;;;;;5.25;3.83;;;11.20;62.60;;;;;;5103317;28;20042;-68
2021/01/01 09:50:01;;;;;;;5.18;4.10;;;11.20;62.60;;;;;;5104089;28;20024;-65
2021/01/01 09:52:27;;;;;;;5.85;3.85;;;11.10;62.60;;;;;;5104113;28;20034;-66
2021/01/01 09:54:53;;;;;;;7.07;4.60;;;11.10;62.60;;;;;;5103995;28;20059;-68
2021/01/01 09:57:18;;;;;;;7.47;4.80;;;11.10;62.80;;;;;;5104005;28;20020;-67
2021/01/01 09:59:44;;;;;;;5.97;3.90;;;11.20;62.60;;;;;;5103907;28;20055;-66
2021/01/01 10:02:10;;;;;;;6.30;4.40;;;11.20;62.40;;;;;;5103863;28;20114;-67
2021/01/01 10:04:35;;;;;;;6.05;4.28;;;11.20;62.40;;;;;;5103840;28;20044;-66
2021/01/01 10:07:01;;;;;;;5.97;3.95;;;11.20;62.60;;;;;;5103812;28;20334;-68
2021/01/01 10:09:27;;;;;;;4.70;4.20;;;11.20;62.70;;;;;;5103472;28;20063;-65
2021/01/01 10:11:56;;;;;;;5.65;3.40;;;11.20;62.60;;;;;;5103688;28;20024;-66
2021/01/01 10:14:21;;;;;;;5.45;4.10;;;11.20;62.70;;;;;;5103648;28;20274;-67
2021/01/01 10:16:48;;;;;;;5.97;4.20;;;11.20;62.80;;;;;;5103602;28;20024;-66
2021/01/01 10:19:14;;;;;;;6.30;4.05;;;11.20;62.50;;;;;;5103591;28;20028;-67
2021/01/01 10:21:39;;;;;;;5.20;3.72;;;11.30;62.60;;;;;;5103540;28;20212;-65
2021/01/01 10:24:06;;;;;;;5.13;3.70;;;11.30;62.50;;;;;;5103453;28;20023;-67
2021/01/01 10:26:31;;;;;;;5.93;4.43;;;11.30;62.60;;;;;;5103384;28;20020;-68
2021/01/01 10:28:57;;;;;;;6.28;4.30;;;11.30;62.50;;;;;;5103268;28;20032;-66
2021/01/01 10:31:23;;;;;;;4.53;3.60;;;11.30;62.40;;;;;;5103323;28;20039;-65
2021/01/01 10:33:49;;;;;;;5.38;3.90;;;11.40;62.50;;;;;;5103282;28;20024;-63
2021/01/01 10:36:15;;;;;;;5.80;3.97;;;11.30;62.30;;;;;;5103258;28;20118;-67
2021/01/01 10:38:41;;;;;;;4.45;4.03;;;11.30;62.50;;;;;;5103206;28;20024;-65
2021/01/01 10:41:14;;;;;;;4.68;3.70;;;11.30;62.60;;;;;;5103187;28;20051;-67
2021/01/01 10:43:41;;;;;;;4.47;3.50;;;11.30;62.60;;;;;;5103186;28;20307;-67
2021/01/01 10:46:07;;;;;;;4.63;3.95;;;11.30;62.50;;;;;;5118870;28;20024;-66
2021/01/01 10:48:33;;;;;;;6.45;4.35;;;11.40;62.40;;;;;;5102886;28;20024;-65
2021/01/01 10:50:58;;;;;;;4.93;3.70;;;11.40;62.50;;;;;;5103013;28;20204;-67
2021/01/01 10:53:24;;;;;;;4.10;3.65;;;11.40;62.40;;;;;;5102910;28;20028;-65
2021/01/01 10:55:50;;;;;;;6.75;3.75;;;11.40;62.40;;;;;;5102874;28;20018;-65
2021/01/01 10:58:23;;;;;;;7.22;3.60;;;11.40;62.40;;;;;;5102734;28;20038;-66
2021/01/01 11:00:56;;;;;;;5.35;3.53;;;11.50;62.20;;;;;;5102849;28;20074;-64
2021/01/01 11:03:22;;;;;;;5.65;3.85;;;11.40;62.10;;;;;;5102703;28;20012;-67
2021/01/01 11:05:48;;;;;;;4.55;3.75;;;11.50;62.20;;;;;;5102614;28;20024;-66
2021/01/01 11:08:15;;;;;;;4.63;3.30;;;11.50;62.10;;;;;;5118472;28;20027;-67
2021/01/01 11:10:41;;;;;;;4.57;3.35;;;11.50;62.00;;;;;;5102410;28;20399;-67
2021/01/01 11:13:07;;;;;;;3.92;3.30;;;11.60;62.00;;;;;;5102575;28;20023;-66
2021/01/01 12:24:52;;;;;;;3.70;3.30;;;12.10;60.60;;;;;;5105861;28;20242;-65
2021/01/01 12:27:21;;;;;;;4.85;3.08;;;12.10;60.40;;;;;;5105710;28;20228;-65
2021/01/01 12:29:47;;;;;;;4.30;3.67;;;12.50;59.50;;;;;;5105651;28;20016;-67
2021/01/01 12:32:15;;;;;;;5.47;3.40;;;13.30;57.40;;;;;;5105631;28;20073;-65
2021/01/01 12:34:41;;;;;;;5.25;3.72;;;14.20;54.80;;;;;;5105619;28;20028;-66
2021/01/01 12:37:08;;;;;;;4.32;3.03;;;14.90;52.80;;;;;;5105516;28;20018;-66
2021/01/01 12:39:34;;;;;;;4.85;3.50;;;15.40;51.20;;;;;;5105458;28;20050;-67
2021/01/01 12:41:59;;;;;;;3.55;2.65;;;15.80;50.00;;;;;;5105468;28;20028;-66
2021/01/01 12:44:25;;;;;;;3.60;2.80;;;15.30;50.40;;;;;;5105389;28;20027;-67
2021/01/01 12:46:52;;;;;;;3.53;2.80;;;14.20;53.20;;;;;;5105347;28;20024;-67
2021/01/01 12:49:18;;;;;;;3.83;3.03;;;13.40;55.70;;;;;;5105222;28;20074;-66
2021/01/01 12:51:44;;;;;;;4.57;3.20;;;13.00;57.30;;;;;;5105273;28;20032;-66
2021/01/01 12:54:11;;;;;;;4.95;3.25;;;12.70;58.10;;;;;;5105193;28;20038;-65
2021/01/01 12:56:37;;;;;;;5.03;3.72;;;12.60;58.60;;;;;;5105190;28;20024;-67
2021/01/01 12:59:03;;;;;;;5.57;3.90;;;12.50;59.00;;;;;;5105092;28;20024;-67
2021/01/01 13:01:36;;;;;;;3.72;2.75;;;12.40;59.30;;;;;;5105128;28;20379;-65
2021/01/01 13:04:02;;;;;;;5.88;3.30;;;12.30;59.80;;;;;;5105070;28;20207;-66
2021/01/01 13:06:28;;;;;;;4.40;3.20;;;12.10;60.30;;;;;;5105003;28;20024;-65
2021/01/01 13:08:57;;;;;;;3.55;2.97;;;12.10;60.80;;;;;;5104672;28;20365;-65
2021/01/01 13:11:26;;;;;;;4.47;3.05;;;12.10;61.00;;;;;;5104883;28;20020;-64
2021/01/01 13:13:52;;;;;;;4.70;3.13;;;12.00;61.20;;;;;;5104858;28;20019;-66
2021/01/01 13:16:25;;;;;;;4.07;3.20;;;12.10;61.20;;;;;;5104819;28;20277;-65
2021/01/01 13:18:52;;;;;;;4.07;3.17;;;12.30;60.60;;;;;;5104689;28;20024;-66
2021/01/01 13:21:33;;;;;;;4.57;3.50;;;12.30;60.40;;;;;;5103666;28;20020;-67
2021/01/01 13:23:59;;;;;;;13.40;3.53;;;12.30;60.70;;;;;;5104709;28;20028;-65
2021/01/01 13:26:26;;;;;;;3.13;2.65;;;12.20;60.60;;;;;;5104572;28;20020;-66
2021/01/01 13:28:53;;;;;;;5.22;3.15;;;12.20;60.60;;;;;;5104525;28;20023;-67
2021/01/01 13:31:19;;;;;;;4.05;3.00;;;12.10;60.80;;;;;;5104493;28;20016;-66
2021/01/01 13:33:45;;;;;;;5.53;3.42;;;12.10;60.80;;;;;;5104459;28;20023;-66
2021/01/01 13:36:21;;;;;;;4.70;2.90;;;12.10;61.20;;;;;;5104417;28;20073;-67
2021/01/01 13:38:47;;;;;;;7.57;3.80;;;12.00;61.10;;;;;;5104424;28;20090;-67
2021/01/01 13:41:13;;;;;;;6.15;3.35;;;12.00;61.40;;;;;;5104286;28;20072;-64
2021/01/01 13:43:43;;;;;;;5.22;3.50;;;12.00;61.40;;;;;;5104309;28;20095;-64
2021/01/01 13:46:18;;;;;;;3.60;2.90;;;12.00;61.50;;;;;;5104245;28;20028;-67
2021/01/01 13:48:43;;;;;;;4.70;3.47;;;12.10;61.90;;;;;;5104109;28;20024;-65
2021/01/01 13:51:09;;;;;;;4.93;3.58;;;12.00;61.50;;;;;;5104131;28;20047;-65
2021/01/01 13:53:35;;;;;;;4.72;3.38;;;12.00;61.70;;;;;;5104093;28;20020;-66
2021/01/01 13:56:01;;;;;;;4.80;3.63;;;12.10;61.50;;;;;;5104005;28;20075;-65
2021/01/01 13:58:27;;;;;;;4.63;3.38;;;12.00;61.60;;;;;;5104021;28;20363;-66
2021/01/01 14:00:52;;;;;;;3.63;3.10;;;12.00;61.80;;;;;;5103929;28;20047;-67